Time;durP1;ratioP1;P1;durP2;ratioP2;P2;SDS_P1;SDS_P2;PMS_P1;PMS_P2;Temp;Humidity;BMP_temperature;BMP_pressure;BME280_temperature;BME280_humidity;BME280_pressure;Samples;Min_cycle;Max_cycle;Signal;HPM_P1;HPM_P2
2022/09/03 00:02:32;;;;;;;;;;;;;;;4.01;93.22;99726.34;4890271;29;20322;-84
2022/09/03 00:04:59;;;;;;;;;;;;;;;3.97;93.47;99741.06;4900982;29;19938;-83
2022/09/03 00:07:42;;;;;;;;;;;;;;;3.90;93.56;99730.31;4887360;29;19931;-83
2022/09/03 00:10:12;;;;;;;;;;;;;;;3.87;93.81;99744.00;4900679;29;20386;-84
2022/09/03 00:12:43;;;;;;;;;;;;;;;3.75;93.91;99748.97;4917353;29;20424;-83
2022/09/03 00:15:11;;;;;;;;;;;;;;;3.62;94.21;99751.44;4900286;29;20302;-84
2022/09/03 00:17:43;;;;;;;;;;;;;;;3.54;94.85;99765.66;4917853;29;19938;-84
2022/09/03 00:20:17;;;;;;;;;;;;;;;3.50;95.31;99761.72;4918398;29;19931;-84
2022/09/03 00:22:50;;;;;;;;;;;;;;;3.53;95.60;99763.22;4920322;29;19931;-84
2022/09/03 00:25:25;;;;;;;;;;;;;;;3.52;95.73;99766.88;4897854;29;19935;-84
2022/09/03 00:27:54;;;;;;;;;;;;;;;3.46;95.96;99763.09;4880625;29;20588;-86
2022/09/03 00:30:23;;;;;;;;;;;;;;;3.48;96.17;99769.91;4895956;29;19931;-83
2022/09/03 00:32:56;;;;;;;;;;;;;;;3.42;96.14;99764.47;4880825;29;20050;-84
2022/09/03 00:35:30;;;;;;;;;;;;;;;3.36;96.37;99771.31;4880572;29;20454;-83
2022/09/03 00:37:58;;;;;;;;;;;;;;;3.32;96.66;99772.72;4882705;29;19935;-84
2022/09/03 00:40:36;;;;;;;;;;;;;;;3.29;96.85;99783.72;4914542;29;20291;-85
2022/09/03 00:43:07;;;;;;;;;;;;;;;3.30;97.10;99776.56;4913966;29;20408;-82
2022/09/03 00:45:38;;;;;;;;;;;;;;;3.33;97.35;99778.88;4898506;29;19931;-84
2022/09/03 00:48:11;;;;;;;;;;;;;;;3.31;97.29;99784.38;4899056;29;20320;-84
2022/09/03 00:50:49;;;;;;;;;;;;;;;3.27;97.47;99785.75;4899520;29;19931;-83
2022/09/03 00:53:22;;;;;;;;;;;;;;;3.30;97.69;99774.72;4898728;29;19931;-84
2022/09/03 00:55:57;;;;;;;;;;;;;;;3.32;97.98;99783.38;4919939;29;20389;-83
2022/09/03 00:58:28;;;;;;;;;;;;;;;3.36;97.86;99779.34;4918983;29;19931;-84
2022/09/03 01:00:55;;;;;;;;;;;;;;;3.43;98.05;99785.63;4935086;29;19931;-84
2022/09/03 01:03:31;;;;;;;;;;;;;;;3.37;97.84;99786.34;4902827;29;19938;-84
2022/09/03 01:06:04;;;;;;;;;;;;;;;3.34;97.94;99796.53;4918505;29;19941;-84
2022/09/03 01:08:33;;;;;;;;;;;;;;;3.35;98.36;99784.88;4919112;29;19978;-84
2022/09/03 01:11:09;;;;;;;;;;;;;;;3.32;98.12;99783.38;4935740;29;20034;-84
2022/09/03 01:13:43;;;;;;;;;;;;;;;3.34;98.20;99786.72;4918657;29;19950;-83
2022/09/03 01:16:10;;;;;;;;;;;;;;;3.38;98.57;99780.00;4918431;29;19977;-83
2022/09/03 01:18:57;;;;;;;;;;;;;;;3.40;98.44;99780.66;4935511;29;19978;-83
2022/09/03 01:21:25;;;;;;;;;;;;;;;3.40;98.53;99785.97;4858035;29;19975;-82
2022/09/03 01:23:58;;;;;;;;;;;;;;;3.37;98.39;99786.34;4857688;29;19932;-84
2022/09/03 01:26:31;;;;;;;;;;;;;;;3.36;98.55;99790.00;4857823;29;19932;-84
2022/09/03 01:29:04;;;;;;;;;;;;;;;3.34;98.28;99793.88;4842468;29;19942;-84
2022/09/03 01:31:46;;;;;;;;;;;;;;;3.35;98.37;99788.38;4857977;29;19955;-84
2022/09/03 01:34:16;;;;;;;;;;;;;;;3.33;98.23;99795.72;4857584;29;20018;-84
2022/09/03 01:36:46;;;;;;;;;;;;;;;3.31;98.51;99803.06;4857834;29;19955;-83
2022/09/03 01:39:22;;;;;;;;;;;;;;;3.31;98.26;99800.38;4857620;29;20388;-84
2022/09/03 01:44:40;;;;;;;;;;;;;;;3.19;98.09;99809.81;4864366;29;19958;-83
2022/09/03 01:47:13;;;;;;;;;;;;;;;3.10;98.19;99813.56;4860050;29;19932;-83
2022/09/03 01:49:43;;;;;;;;;;;;;;;3.10;98.64;99811.72;4857789;29;20047;-84
2022/09/03 01:52:14;;;;;;;;;;;;;;;3.06;98.56;99817.56;4857438;29;20008;-83
2022/09/03 01:55:05;;;;;;;;;;;;;;;3.07;98.85;99819.25;4857798;29;19972;-84
2022/09/03 01:57:35;;;;;;;;;;;;;;;2.98;98.64;99818.44;4863431;29;19932;-83
2022/09/03 02:00:08;;;;;;;;;;;;;;;2.94;99.00;99820.66;4902363;29;19938;-84
2022/09/03 02:02:39;;;;;;;;;;;;;;;2.88;99.16;99829.31;4918805;29;20294;-85
2022/09/03 02:05:08;;;;;;;;;;;;;;;2.82;99.13;99835.38;4934500;29;20021;-83
2022/09/03 02:07:39;;;;;;;;;;;;;;;2.78;99.45;99834.03;4933819;29;19985;-83
2022/09/03 02:10:08;;;;;;;;;;;;;;;2.71;99.62;99833.06;4936784;29;19930;-84
2022/09/03 02:12:37;;;;;;;;;;;;;;;2.68;99.64;99836.09;4919793;29;20464;-84
2022/09/03 02:15:06;;;;;;;;;;;;;;;2.66;99.89;99843.41;4918117;29;19930;-85
2022/09/03 02:17:35;;;;;;;;;;;;;;;2.59;100.00;99840.63;4918628;29;19937;-85
2022/09/03 02:20:03;;;;;;;;;;;;;;;2.53;100.00;99849.28;4934640;29;20305;-84
2022/09/03 02:22:30;;;;;;;;;;;;;;;2.53;100.00;99857.28;4939289;29;19931;-84
2022/09/03 02:24:58;;;;;;;;;;;;;;;2.54;100.00;99854.47;4922384;29;19935;-84
2022/09/03 02:27:25;;;;;;;;;;;;;;;2.51;100.00;99861.97;4939472;29;19978;-84
2022/09/03 02:29:52;;;;;;;;;;;;;;;2.50;100.00;99855.78;4922532;29;19934;-83
2022/09/03 02:32:19;;;;;;;;;;;;;;;2.50;100.00;99861.13;4938712;29;19985;-85
2022/09/03 02:34:47;;;;;;;;;;;;;;;2.56;100.00;99857.78;4938725;29;20496;-84
2022/09/03 02:37:28;;;;;;;;;;;;;;;2.65;100.00;99866.56;4938387;29;19966;-84
2022/09/03 02:39:55;;;;;;;;;;;;;;;2.73;100.00;99865.72;4938676;29;19938;-84
2022/09/03 02:42:22;;;;;;;;;;;;;;;2.74;100.00;99862.88;4938848;29;19962;-82
2022/09/03 02:44:56;;;;;;;;;;;;;;;2.80;100.00;99866.69;4921515;29;20001;-84
2022/09/03 02:47:23;;;;;;;;;;;;;;;2.88;100.00;99863.97;4921035;29;19931;-83
2022/09/03 02:49:50;;;;;;;;;;;;;;;2.87;100.00;99864.19;4920926;29;20416;-84
2022/09/03 02:52:17;;;;;;;;;;;;;;;2.92;100.00;99867.16;4937800;29;20338;-83
2022/09/03 02:54:44;;;;;;;;;;;;;;;2.92;100.00;99856.50;4937955;29;20038;-83
2022/09/03 02:57:13;;;;;;;;;;;;;;;2.97;100.00;99860.28;4938385;29;19930;-84
2022/09/03 02:59:40;;;;;;;;;;;;;;;3.04;100.00;99866.59;4939529;29;20306;-84
2022/09/03 03:02:07;;;;;;;;;;;;;;;3.13;100.00;99872.69;4920604;29;20025;-83
2022/09/03 03:04:34;;;;;;;;;;;;;;;3.17;100.00;99857.19;4938388;29;19931;-85
2022/09/03 03:07:01;;;;;;;;;;;;;;;3.19;100.00;99864.00;4937386;29;19934;-84
2022/09/03 03:09:28;;;;;;;;;;;;;;;3.18;99.66;99866.84;4938401;29;20464;-85
2022/09/03 03:11:55;;;;;;;;;;;;;;;3.13;99.64;99870.03;4939083;29;19930;-84
2022/09/03 03:14:22;;;;;;;;;;;;;;;3.14;99.46;99868.19;4937274;29;20045;-84
2022/09/03 03:16:49;;;;;;;;;;;;;;;3.14;99.59;99873.53;4920949;29;19934;-85
2022/09/03 03:19:16;;;;;;;;;;;;;;;3.20;99.47;99867.50;4937612;29;20405;-83
2022/09/03 03:21:43;;;;;;;;;;;;;;;3.19;99.46;99879.16;4939067;29;19938;-83
2022/09/03 03:24:13;;;;;;;;;;;;;;;3.20;99.27;99870.16;4939527;29;19953;-85
2022/09/03 03:26:40;;;;;;;;;;;;;;;3.25;99.26;99876.63;4940923;29;19935;-84
2022/09/03 03:29:07;;;;;;;;;;;;;;;3.29;99.16;99889.63;4942026;29;20046;-83
2022/09/03 03:31:34;;;;;;;;;;;;;;;3.31;99.18;99884.94;4938434;29;19977;-82
2022/09/03 03:34:01;;;;;;;;;;;;;;;3.33;98.79;99885.59;4920891;29;20451;-84
2022/09/03 03:36:32;;;;;;;;;;;;;;;3.34;98.67;99885.44;4937974;29;20372;-84
2022/09/03 03:38:59;;;;;;;;;;;;;;;3.37;98.21;99885.06;4936978;29;19990;-84
2022/09/03 03:41:27;;;;;;;;;;;;;;;3.42;98.14;99885.38;4936106;29;20010;-83
2022/09/03 03:43:56;;;;;;;;;;;;;;;3.47;98.01;99895.53;4924948;29;20450;-84
2022/09/03 03:46:24;;;;;;;;;;;;;;;3.51;97.82;99883.47;4917534;29;19930;-84
2022/09/03 03:48:51;;;;;;;;;;;;;;;3.54;97.22;99887.63;4916840;29;20294;-85
2022/09/03 03:51:18;;;;;;;;;;;;;;;3.59;97.29;99895.94;4932386;29;20466;-85
2022/09/03 03:53:45;;;;;;;;;;;;;;;3.61;96.80;99900.09;4921512;29;19931;-83
2022/09/03 03:56:12;;;;;;;;;;;;;;;3.66;96.52;99904.91;4901232;29;20373;-85
2022/09/03 03:58:42;;;;;;;;;;;;;;;3.69;96.33;99908.03;4901067;29;19988;-84
2022/09/03 04:01:15;;;;;;;;;;;;;;;3.76;96.10;99913.50;4917567;29;20398;-83
2022/09/03 04:03:43;;;;;;;;;;;;;;;3.80;95.80;99906.81;4917547;29;20021;-84
2022/09/03 04:06:11;;;;;;;;;;;;;;;3.82;95.33;99907.47;4900351;29;19932;-84
2022/09/03 04:08:38;;;;;;;;;;;;;;;3.79;95.30;99917.66;4917611;29;19979;-84
2022/09/03 04:11:06;;;;;;;;;;;;;;;3.82;94.85;99911.94;4917420;29;19931;-84
2022/09/03 04:13:34;;;;;;;;;;;;;;;3.86;94.64;99915.94;4900634;29;20408;-84
2022/09/03 04:16:05;;;;;;;;;;;;;;;3.95;94.42;99922.03;4920683;29;20029;-86
2022/09/03 04:18:33;;;;;;;;;;;;;;;3.99;93.73;99926.00;4907242;29;20070;-84
2022/09/03 04:21:09;;;;;;;;;;;;;;;4.08;93.66;99932.97;4934250;29;19931;-84
2022/09/03 04:23:53;;;;;;;;;;;;;;;4.16;93.04;99924.88;4917879;29;19941;-86
2022/09/03 04:26:24;;;;;;;;;;;;;;;4.20;92.84;99920.81;4932918;29;19962;-84
2022/09/03 04:28:51;;;;;;;;;;;;;;;4.28;93.00;99917.22;4908367;29;19986;-84
2022/09/03 04:31:18;;;;;;;;;;;;;;;4.33;92.56;99920.22;4915866;29;20355;-85
2022/09/03 04:33:47;;;;;;;;;;;;;;;4.38;92.02;99925.84;4915885;29;19930;-83
2022/09/03 04:36:16;;;;;;;;;;;;;;;4.46;91.88;99927.63;4932143;29;19978;-83
2022/09/03 04:38:46;;;;;;;;;;;;;;;4.52;91.47;99927.69;4916220;29;20386;-83
2022/09/03 04:41:14;;;;;;;;;;;;;;;4.60;90.79;99929.47;4883676;29;20481;-83
2022/09/03 04:43:42;;;;;;;;;;;;;;;4.70;90.77;99927.34;4931367;29;19938;-83
2022/09/03 04:46:10;;;;;;;;;;;;;;;4.80;90.47;99927.06;4901103;29;19935;-84
2022/09/03 04:48:46;;;;;;;;;;;;;;;4.87;90.21;99929.84;4934230;29;20037;-85
2022/09/03 04:51:13;;;;;;;;;;;;;;;4.99;90.06;99925.69;4917850;29;19930;-85
2022/09/03 04:53:41;;;;;;;;;;;;;;;5.10;89.77;99924.38;4932810;29;19990;-85
2022/09/03 04:56:17;;;;;;;;;;;;;;;5.21;89.07;99938.09;4932006;29;19935;-85
2022/09/03 04:58:44;;;;;;;;;;;;;;;5.25;88.17;99935.06;4932389;29;19935;-84
2022/09/03 05:01:17;;;;;;;;;;;;;;;5.43;87.83;99943.53;4915712;29;19942;-83
2022/09/03 05:03:45;;;;;;;;;;;;;;;5.53;87.79;99943.22;4932720;29;20334;-84
2022/09/03 05:06:13;;;;;;;;;;;;;;;5.61;87.14;99941.25;4931863;29;19954;-83
2022/09/03 05:08:40;;;;;;;;;;;;;;;5.73;86.84;99946.13;4930432;29;19930;-84
2022/09/03 05:11:07;;;;;;;;;;;;;;;5.82;86.47;99943.13;4932065;29;19959;-83
2022/09/03 05:13:35;;;;;;;;;;;;;;;5.87;85.53;99942.53;4914963;29;19938;-82
2022/09/03 05:16:05;;;;;;;;;;;;;;;5.91;85.26;99943.84;4886011;29;19937;-84
2022/09/03 05:18:34;;;;;;;;;;;;;;;6.08;85.23;99944.44;4934891;29;20025;-84
2022/09/03 05:21:02;;;;;;;;;;;;;;;6.18;85.02;99953.00;4899764;29;19977;-85
2022/09/03 05:23:29;;;;;;;;;;;;;;;6.33;84.56;99947.56;4931609;29;19942;-84
2022/09/03 05:26:05;;;;;;;;;;;;;;;6.44;83.71;99951.53;4930229;29;19937;-84
2022/09/03 05:28:37;;;;;;;;;;;;;;;6.53;83.00;99954.91;4590188;28;10000526;-84
2022/09/03 05:31:05;;;;;;;;;;;;;;;6.62;82.53;99954.56;4911499;29;19941;-85
2022/09/03 05:33:34;;;;;;;;;;;;;;;6.68;81.68;99958.31;4915301;29;19931;-86
2022/09/03 05:36:02;;;;;;;;;;;;;;;6.73;81.41;99958.56;4897796;29;20037;-85
2022/09/03 05:38:29;;;;;;;;;;;;;;;6.87;81.63;99957.63;4917800;29;20884;-86
2022/09/03 05:41:01;;;;;;;;;;;;;;;7.00;80.38;99964.91;4929957;29;19937;-84
2022/09/03 05:43:29;;;;;;;;;;;;;;;7.09;80.00;99968.25;4957074;29;19937;-83
2022/09/03 05:45:59;;;;;;;;;;;;;;;7.14;79.28;99960.44;4940335;29;19937;-86
2022/09/03 05:48:27;;;;;;;;;;;;;;;7.31;79.05;99969.00;4945187;29;20026;-87
2022/09/03 05:51:00;;;;;;;;;;;;;;;7.44;78.45;99963.69;4910473;29;20033;-88
2022/09/03 05:53:29;;;;;;;;;;;;;;;7.53;77.26;99956.28;4921131;29;19990;-88
2022/09/03 05:56:00;;;;;;;;;;;;;;;7.60;76.81;99968.72;4924287;29;20029;-86
2022/09/03 05:58:29;;;;;;;;;;;;;;;7.75;76.88;99967.72;4905737;29;19942;-90
2022/09/03 06:00:56;;;;;;;;;;;;;;;7.95;76.63;99978.50;4939178;29;20354;-86
2022/09/03 06:03:24;;;;;;;;;;;;;;;8.04;76.41;99977.28;4923686;29;19938;-90
2022/09/03 06:05:53;;;;;;;;;;;;;;;8.04;75.09;99979.97;4924429;29;19937;-86
2022/09/03 06:08:20;;;;;;;;;;;;;;;8.11;74.89;99985.38;4923610;29;19934;-86
2022/09/03 06:10:47;;;;;;;;;;;;;;;8.17;74.15;99977.31;4943046;29;19931;-92
2022/09/03 06:13:28;;;;;;;;;;;;;;;8.25;73.36;99977.13;4911463;29;19978;-90
2022/09/03 06:15:56;;;;;;;;;;;;;;;8.32;73.62;99976.28;4927082;29;19930;-88
2022/09/03 06:18:24;;;;;;;;;;;;;;;8.49;73.51;99976.75;4924237;29;19931;-87
2022/09/03 06:20:54;;;;;;;;;;;;;;;8.68;72.81;99978.59;4908312;29;19961;-88
2022/09/03 06:23:22;;;;;;;;;;;;;;;8.78;72.11;99970.91;4917988;29;19958;-83
2022/09/03 06:26:05;;;;;;;;;;;;;;;8.87;71.43;99974.22;4936524;29;19930;-84
2022/09/03 06:28:36;;;;;;;;;;;;;;;8.94;70.16;99975.06;4902943;29;20346;-82
2022/09/03 06:31:09;;;;;;;;;;;;;;;9.05;69.34;99976.25;4938598;29;19931;-85
2022/09/03 06:33:37;;;;;;;;;;;;;;;9.14;68.00;99982.25;4901300;29;19990;-84
2022/09/03 06:36:05;;;;;;;;;;;;;;;9.13;68.11;99977.91;4934400;29;19931;-84
2022/09/03 06:38:37;;;;;;;;;;;;;;;9.31;67.57;99986.13;4935538;29;19999;-83
2022/09/03 06:41:04;;;;;;;;;;;;;;;9.29;66.92;99985.50;4918598;29;19977;-84
2022/09/03 06:43:33;;;;;;;;;;;;;;;9.46;67.09;99978.63;4929098;29;19934;-83
2022/09/03 06:46:01;;;;;;;;;;;;;;;9.57;67.17;99974.44;4919048;29;19931;-85
2022/09/03 06:48:29;;;;;;;;;;;;;;;9.76;66.09;99978.88;4922132;29;19959;-85
2022/09/03 06:50:56;;;;;;;;;;;;;;;9.90;66.17;99976.97;4927328;29;19979;-85
2022/09/03 06:53:33;;;;;;;;;;;;;;;10.09;64.84;99985.16;4887788;29;19952;-86
2022/09/03 06:56:02;;;;;;;;;;;;;;;9.83;64.11;99983.44;4919318;29;19935;-85
2022/09/03 06:58:36;;;;;;;;;;;;;;;9.83;64.38;99978.88;4920159;29;20511;-83
2022/09/03 07:01:05;;;;;;;;;;;;;;;9.98;64.18;99981.28;4927349;29;19938;-82
2022/09/03 07:03:35;;;;;;;;;;;;;;;9.97;64.14;99977.72;4918837;29;19931;-84
2022/09/03 07:06:03;;;;;;;;;;;;;;;10.24;63.87;99974.88;4922011;29;19959;-84
2022/09/03 07:08:31;;;;;;;;;;;;;;;10.65;62.96;99984.31;4930668;29;19931;-82
2022/09/03 07:10:59;;;;;;;;;;;;;;;11.01;61.86;99974.63;4906608;29;19938;-84
2022/09/03 07:13:26;;;;;;;;;;;;;;;10.99;60.65;99982.16;4917743;29;19931;-86
2022/09/03 07:16:00;;;;;;;;;;;;;;;11.03;59.25;99978.75;4919433;29;19935;-85
2022/09/03 07:18:27;;;;;;;;;;;;;;;10.91;59.42;99985.13;4931738;29;19938;-84
2022/09/03 07:20:58;;;;;;;;;;;;;;;10.47;59.57;99984.28;4920248;29;19978;-84
2022/09/03 07:23:30;;;;;;;;;;;;;;;10.44;59.60;99988.25;4929601;29;20406;-84
2022/09/03 07:25:58;;;;;;;;;;;;;;;10.36;60.31;99994.75;4930232;29;19934;-86
2022/09/03 07:28:25;;;;;;;;;;;;;;;10.60;59.97;99994.97;4910999;29;20037;-87
2022/09/03 07:31:02;;;;;;;;;;;;;;;10.92;59.07;99998.41;4903921;29;19931;-85
2022/09/03 07:33:30;;;;;;;;;;;;;;;10.85;59.05;100003.88;4903840;29;19935;-86
2022/09/03 07:36:06;;;;;;;;;;;;;;;10.75;58.14;100003.56;4910823;29;20433;-85
2022/09/03 07:38:34;;;;;;;;;;;;;;;10.93;57.64;100000.06;4919138;29;20299;-84
2022/09/03 07:41:01;;;;;;;;;;;;;;;11.22;57.25;99989.59;4937377;29;20373;-86
2022/09/03 07:43:29;;;;;;;;;;;;;;;10.79;57.52;99987.75;4936906;29;19930;-86
2022/09/03 07:45:56;;;;;;;;;;;;;;;10.66;58.29;99982.44;4920445;29;19930;-85
2022/09/03 07:48:23;;;;;;;;;;;;;;;10.91;57.52;99990.53;4937342;29;20144;-83
2022/09/03 07:50:51;;;;;;;;;;;;;;;11.11;56.88;99984.94;4936604;29;19931;-86
2022/09/03 07:53:27;;;;;;;;;;;;;;;11.34;56.50;99989.66;4936687;29;19930;-84
2022/09/03 07:55:59;;;;;;;;;;;;;;;11.54;55.32;99984.84;4936858;29;20025;-84
2022/09/03 07:58:30;;;;;;;;;;;;;;;11.78;54.21;99977.69;4936365;29;20029;-85
2022/09/03 08:00:58;;;;;;;;;;;;;;;11.92;53.47;99976.50;4920009;29;19931;-85
2022/09/03 08:03:25;;;;;;;;;;;;;;;12.17;53.47;99978.19;4904471;29;19935;-85
2022/09/03 08:05:52;;;;;;;;;;;;;;;12.49;52.18;99970.63;4920082;29;20322;-85
2022/09/03 08:08:44;;;;;;;;;;;;;;;12.67;52.11;99966.16;4928193;29;19969;-85
2022/09/03 08:11:14;;;;;;;;;;;;;;;13.29;50.70;99968.38;4935241;29;19982;-85
2022/09/03 08:13:44;;;;;;;;;;;;;;;13.61;48.67;99979.63;4936576;29;20488;-85
2022/09/03 08:16:11;;;;;;;;;;;;;;;13.69;47.48;99962.97;4936459;29;20214;-87
2022/09/03 08:18:39;;;;;;;;;;;;;;;13.57;46.97;99964.88;4935549;29;20374;-85
2022/09/03 08:21:08;;;;;;;;;;;;;;;13.42;47.20;99968.97;4920275;29;19931;-86
2022/09/03 08:23:36;;;;;;;;;;;;;;;13.96;46.92;99962.41;4920112;29;20330;-85
2022/09/03 08:26:03;;;;;;;;;;;;;;;14.51;45.12;99961.72;4936451;29;19930;-85
2022/09/03 08:28:31;;;;;;;;;;;;;;;14.90;44.26;99953.63;4920079;29;20386;-85
2022/09/03 08:31:21;;;;;;;;;;;;;;;14.89;43.85;99965.59;4921354;29;19930;-84
2022/09/03 08:33:49;;;;;;;;;;;;;;;15.26;43.64;99965.00;4939094;29;20390;-86
2022/09/03 08:36:18;;;;;;;;;;;;;;;15.34;43.02;99961.84;4920496;29;19931;-88
2022/09/03 08:38:51;;;;;;;;;;;;;;;15.53;41.36;99971.34;4919787;29;19946;-86
2022/09/03 08:41:32;;;;;;;;;;;;;;;15.10;42.16;99944.94;4917968;29;20409;-85
2022/09/03 08:44:18;;;;;;;;;;;;;;;14.22;44.79;99967.19;4935495;29;20041;-85
2022/09/03 08:46:50;;;;;;;;;;;;;;;14.67;44.27;99957.38;4919147;29;19938;-85
2022/09/03 08:49:20;;;;;;;;;;;;;;;15.82;42.80;99950.22;4918353;29;19931;-86
2022/09/03 08:51:47;;;;;;;;;;;;;;;16.26;41.75;99952.00;4919139;29;20354;-86
2022/09/03 08:54:14;;;;;;;;;;;;;;;16.07;41.86;99964.31;4934494;29;20385;-85
2022/09/03 08:56:42;;;;;;;;;;;;;;;16.49;40.46;99958.19;4872579;29;19954;-85
2022/09/03 08:59:13;;;;;;;;;;;;;;;16.30;40.87;99955.81;4935070;29;19931;-84
2022/09/03 09:02:01;;;;;;;;;;;;;;;16.24;39.71;99965.03;4902901;29;19997;-86
2022/09/03 09:04:39;;;;;;;;;;;;;;;16.86;39.45;99950.00;4918700;29;20313;-86
2022/09/03 09:07:07;;;;;;;;;;;;;;;16.20;38.33;99962.03;4940023;29;20033;-86
2022/09/03 09:09:47;;;;;;;;;;;;;;;16.33;37.77;99960.78;4903108;29;19974;-87
2022/09/03 09:12:19;;;;;;;;;;;;;;;16.30;37.39;99955.81;4918379;29;20476;-87
2022/09/03 09:14:55;;;;;;;;;;;;;;;17.20;36.97;99960.56;4918825;29;19938;-86
2022/09/03 09:17:41;;;;;;;;;;;;;;;17.81;35.23;99970.94;4934794;29;20415;-86
2022/09/03 09:20:17;;;;;;;;;;;;;;;17.88;34.81;99952.41;4936719;29;20029;-84
2022/09/03 09:22:48;;;;;;;;;;;;;;;17.79;34.70;99946.59;4919059;29;19931;-85
2022/09/03 09:25:19;;;;;;;;;;;;;;;17.55;34.76;99951.72;4934541;29;19931;-86
2022/09/03 09:27:50;;;;;;;;;;;;;;;17.28;35.37;99947.25;4935173;29;19935;-86
2022/09/03 09:30:17;;;;;;;;;;;;;;;17.47;35.06;99925.78;4933760;29;19930;-85
2022/09/03 09:32:46;;;;;;;;;;;;;;;17.56;35.05;99942.44;4934812;29;19935;-85
2022/09/03 09:35:14;;;;;;;;;;;;;;;18.26;33.74;99948.34;4935279;29;19931;-86
2022/09/03 09:37:49;;;;;;;;;;;;;;;18.42;33.71;99944.53;4887391;29;19938;-85
2022/09/03 09:40:25;;;;;;;;;;;;;;;19.10;33.97;99948.03;4918183;29;20067;-86
2022/09/03 09:43:10;;;;;;;;;;;;;;;19.69;33.17;99936.31;4904232;29;20041;-86
2022/09/03 09:45:39;;;;;;;;;;;;;;;19.40;32.93;99936.16;4920878;29;19977;-86
2022/09/03 09:48:22;;;;;;;;;;;;;;;19.89;32.88;99938.91;4918572;29;19958;-86
2022/09/03 09:50:49;;;;;;;;;;;;;;;20.51;32.36;99924.78;4903018;29;19931;-85
2022/09/03 09:53:17;;;;;;;;;;;;;;;20.12;32.40;99933.84;4937012;29;19930;-86
2022/09/03 09:55:51;;;;;;;;;;;;;;;20.43;32.49;99926.19;4903025;29;19986;-84
2022/09/03 09:58:19;;;;;;;;;;;;;;;20.86;30.99;99931.03;4929164;29;19954;-86
2022/09/03 10:01:12;;;;;;;;;;;;;;;19.38;33.13;99928.22;4941068;29;19998;-87
2022/09/03 10:03:40;;;;;;;;;;;;;;;17.62;35.11;99926.91;4935804;29;19958;-86
2022/09/03 10:09:07;;;;;;;;;;;;;;;15.77;38.43;99932.97;4917847;29;19993;-86
2022/09/03 10:11:39;;;;;;;;;;;;;;;15.36;39.01;99938.75;4902673;29;19938;-85
2022/09/03 10:14:08;;;;;;;;;;;;;;;16.64;36.92;99922.88;4918640;29;19974;-86
2022/09/03 10:16:36;;;;;;;;;;;;;;;17.95;35.06;99933.81;4935280;29;19955;-86
2022/09/03 10:19:03;;;;;;;;;;;;;;;19.29;33.48;99929.88;4918489;29;19931;-86
2022/09/03 10:21:49;;;;;;;;;;;;;;;19.87;31.51;99932.91;4901559;29;19946;-86
2022/09/03 10:24:38;;;;;;;;;;;;;;;17.53;34.54;99934.78;4934616;29;19931;-86
2022/09/03 10:27:10;;;;;;;;;;;;;;;16.34;36.07;99934.34;4902901;29;19970;-85
2022/09/03 10:29:38;;;;;;;;;;;;;;;15.64;37.41;99928.72;4921976;29;19938;-84
2022/09/03 10:32:24;;;;;;;;;;;;;;;15.46;37.80;99929.06;4938383;29;19950;-86
2022/09/03 10:35:11;;;;;;;;;;;;;;;17.02;36.42;99932.66;4904124;29;19953;-86
2022/09/03 10:37:46;;;;;;;;;;;;;;;17.15;36.48;99928.63;4935970;29;19938;-86
2022/09/03 10:40:29;;;;;;;;;;;;;;;16.64;36.58;99931.03;4888308;29;19931;-87
2022/09/03 10:43:03;;;;;;;;;;;;;;;15.82;37.03;99941.19;4922391;29;20161;-86
2022/09/03 10:45:30;;;;;;;;;;;;;;;15.02;38.38;99937.22;4906513;29;19934;-86
2022/09/03 10:48:04;;;;;;;;;;;;;;;14.59;39.38;99939.59;4922508;29;20312;-87
2022/09/03 10:50:51;;;;;;;;;;;;;;;14.54;39.93;99931.38;4938701;29;19955;-86
2022/09/03 10:53:37;;;;;;;;;;;;;;;14.40;39.37;99933.56;4939810;29;20029;-86
2022/09/03 10:56:12;;;;;;;;;;;;;;;14.19;39.42;99932.41;4921734;29;19930;-86
2022/09/03 10:58:52;;;;;;;;;;;;;;;14.21;39.57;99943.03;4904418;29;19942;-84
2022/09/03 11:01:38;;;;;;;;;;;;;;;15.06;38.54;99939.16;4919294;29;19931;-84
2022/09/03 11:04:24;;;;;;;;;;;;;;;15.75;37.21;99921.56;4924492;29;19938;-86
2022/09/03 11:06:53;;;;;;;;;;;;;;;16.95;35.66;99945.72;4906679;29;20245;-89
2022/09/03 11:09:26;;;;;;;;;;;;;;;17.37;35.31;99935.81;4922999;29;19930;-91
2022/09/03 11:12:01;;;;;;;;;;;;;;;19.85;31.99;99943.34;4942678;29;19931;-89
2022/09/03 11:14:37;;;;;;;;;;;;;;;21.44;29.25;99933.69;4909316;29;19937;-88
2022/09/03 11:17:10;;;;;;;;;;;;;;;21.32;28.21;99927.75;4912478;29;19932;-87
2022/09/03 11:19:39;;;;;;;;;;;;;;;20.03;29.83;99938.31;4929435;29;19931;-88
2022/09/03 11:22:07;;;;;;;;;;;;;;;21.01;29.46;99930.84;4931921;29;20019;-86
2022/09/03 11:24:36;;;;;;;;;;;;;;;22.16;28.18;99913.44;4946259;29;19931;-89
2022/09/03 11:27:04;;;;;;;;;;;;;;;22.91;27.18;99920.66;4937941;29;20332;-87
2022/09/03 11:29:41;;;;;;;;;;;;;;;21.43;28.00;99915.56;4921151;29;19938;-89
2022/09/03 11:32:15;;;;;;;;;;;;;;;19.18;31.30;99909.13;4935803;29;19986;-89
2022/09/03 11:34:47;;;;;;;;;;;;;;;18.29;32.42;99906.00;4937268;29;20592;-88
2022/09/03 11:37:20;;;;;;;;;;;;;;;18.91;31.84;99904.84;4921700;29;19931;-87
2022/09/03 11:39:53;;;;;;;;;;;;;;;19.11;31.14;99901.22;4918520;29;19931;-88
2022/09/03 11:42:26;;;;;;;;;;;;;;;18.60;31.96;99893.94;4922558;29;19935;-89
2022/09/03 11:44:58;;;;;;;;;;;;;;;18.82;32.22;99898.31;4939089;29;20302;-89
2022/09/03 11:47:41;;;;;;;;;;;;;;;18.62;33.14;99902.69;4922280;29;20271;-88
2022/09/03 11:50:23;;;;;;;;;;;;;;;18.56;33.76;99898.34;4921463;29;20440;-86
2022/09/03 11:52:52;;;;;;;;;;;;;;;19.38;32.26;99895.38;4920740;29;20057;-89
2022/09/03 11:55:30;;;;;;;;;;;;;;;19.55;32.27;99891.47;4920027;29;19931;-89
2022/09/03 11:58:18;;;;;;;;;;;;;;;18.91;33.05;99890.34;4923364;29;19937;-89
2022/09/03 12:00:46;;;;;;;;;;;;;;;21.77;30.26;99887.09;4911614;29;19934;-88
2022/09/03 12:03:15;;;;;;;;;;;;;;;23.77;27.90;99890.53;4926186;29;20029;-88
2022/09/03 12:05:50;;;;;;;;;;;;;;;22.74;28.38;99877.25;4891206;29;19969;-92
2022/09/03 12:08:25;;;;;;;;;;;;;;;20.20;30.46;99877.59;4918304;29;19981;-90
2022/09/03 12:11:08;;;;;;;;;;;;;;;19.12;32.12;99875.50;4923512;29;20359;-88
2022/09/03 12:13:59;;;;;;;;;;;;;;;18.41;33.53;99877.31;4920346;29;19938;-90
2022/09/03 12:16:29;;;;;;;;;;;;;;;17.61;34.74;99873.41;4891424;29;19930;-91
2022/09/03 12:19:00;;;;;;;;;;;;;;;17.04;35.57;99869.66;4907017;29;20454;-87
2022/09/03 12:21:27;;;;;;;;;;;;;;;17.82;34.92;99866.09;4915102;29;19931;-89
2022/09/03 12:24:14;;;;;;;;;;;;;;;17.93;34.38;99863.13;4849271;29;20459;-88
2022/09/03 12:26:41;;;;;;;;;;;;;;;17.82;34.23;99860.63;4864238;29;20482;-89
2022/09/03 12:29:24;;;;;;;;;;;;;;;17.06;35.23;99859.31;4866807;29;20419;-87
2022/09/03 12:31:55;;;;;;;;;;;;;;;16.39;36.38;99858.94;4865972;29;19938;-90
2022/09/03 12:34:22;;;;;;;;;;;;;;;16.36;36.43;99859.47;4866887;29;19981;-90
2022/09/03 12:36:50;;;;;;;;;;;;;;;16.42;36.52;99863.03;4851341;29;19982;-89
2022/09/03 12:39:25;;;;;;;;;;;;;;;16.15;36.82;99852.19;4856173;29;19963;-86
2022/09/03 12:42:14;;;;;;;;;;;;;;;16.09;37.27;99845.09;4843081;29;20050;-86
2022/09/03 12:44:41;;;;;;;;;;;;;;;16.01;37.50;99849.94;4851527;29;19940;-89
2022/09/03 12:47:08;;;;;;;;;;;;;;;15.82;37.64;99854.09;4867829;29;20034;-86
2022/09/03 12:50:04;;;;;;;;;;;;;;;15.63;38.27;99847.38;4927136;29;19954;-85
2022/09/03 12:52:32;;;;;;;;;;;;;;;15.63;38.14;99850.09;4924757;29;19931;-88
2022/09/03 12:54:59;;;;;;;;;;;;;;;15.62;38.40;99854.69;4925481;29;19931;-86
2022/09/03 12:57:31;;;;;;;;;;;;;;;16.61;37.29;99844.34;4931769;29;20018;-85
2022/09/03 12:59:59;;;;;;;;;;;;;;;18.43;34.66;99841.47;4939476;29;19931;-88
2022/09/03 13:02:31;;;;;;;;;;;;;;;18.12;34.76;99840.72;4939566;29;19958;-87
2022/09/03 13:05:16;;;;;;;;;;;;;;;16.98;35.98;99843.47;4863333;29;20010;-89
2022/09/03 13:07:45;;;;;;;;;;;;;;;16.53;37.01;99844.84;4864783;29;19935;-88
2022/09/03 13:10:22;;;;;;;;;;;;;;;16.15;37.31;99839.41;4850500;29;20458;-89
2022/09/03 13:12:56;;;;;;;;;;;;;;;17.64;35.45;99840.09;4842098;29;20081;-89
2022/09/03 13:15:24;;;;;;;;;;;;;;;18.85;33.67;99834.84;4855691;29;20008;-88
2022/09/03 13:18:02;;;;;;;;;;;;;;;18.09;34.41;99831.16;4866672;29;19932;-89
2022/09/03 13:20:45;;;;;;;;;;;;;;;17.28;35.57;99835.41;4869738;29;20308;-88